Time;durP1;ratioP1;P1;durP2;ratioP2;P2;SDS_P1;SDS_P2;PMS_P1;PMS_P2;Temp;Humidity;BMP_temperature;BMP_pressure;BME280_temperature;BME280_humidity;BME280_pressure;Samples;Min_cycle;Max_cycle;Signal;HPM_P1;HPM_P2
2021/09/28 00:00:40;;;;;;;20.92;19.10;;;;;;;10.30;100.00;99349.47;2038155;29;20212;-81
2021/09/28 00:01:43;;;;;;;20.80;18.80;;;;;;;10.27;100.00;99346.59;2041547;29;20210;-81
2021/09/28 00:02:54;;;;;;;21.65;19.42;;;;;;;10.14;100.00;99332.84;2040747;29;20242;-81
2021/09/28 00:03:57;;;;;;;24.00;19.75;;;;;;;10.24;100.00;99345.28;2048531;29;20207;-81
2021/09/28 00:05:06;;;;;;;21.45;19.35;;;;;;;10.14;100.00;99345.38;2048468;28;20199;-81
2021/09/28 00:06:07;;;;;;;21.92;19.80;;;;;;;10.18;100.00;99344.53;2055288;29;20297;-81
2021/09/28 00:07:10;;;;;;;21.43;19.33;;;;;;;10.09;100.00;99342.78;2053571;29;20190;-81
2021/09/28 00:08:25;;;;;;;21.95;19.75;;;;;;;10.09;100.00;99348.91;2054892;29;20723;-81
2021/09/28 00:09:27;;;;;;;22.77;20.58;;;;;;;10.06;100.00;99343.34;2048358;28;20202;-81
2021/09/28 00:10:31;;;;;;;25.70;20.90;;;;;;;10.01;100.00;99335.41;2046585;29;20203;-81
2021/09/28 00:11:35;;;;;;;22.05;19.92;;;;;;;10.05;100.00;99353.22;2048987;29;20662;-81
2021/09/28 00:12:37;;;;;;;22.90;20.50;;;;;;;9.97;100.00;99345.03;2047670;29;20206;-81
2021/09/28 00:15:01;;;;;;;22.52;20.40;;;;;;;9.92;100.00;99340.59;2047902;29;20199;-81
2021/09/28 00:16:04;;;;;;;21.77;19.83;;;;;;;9.89;100.00;99351.78;2047079;29;20191;-82
2021/09/28 00:17:08;;;;;;;22.05;19.75;;;;;;;9.85;100.00;99343.59;2054838;29;20634;-81
2021/09/28 00:18:10;;;;;;;22.98;20.63;;;;;;;9.88;100.00;99352.88;2054702;29;20198;-81
2021/09/28 00:19:16;;;;;;;22.05;20.08;;;;;;;9.86;100.00;99361.16;2055719;29;20202;-81
2021/09/28 00:20:17;;;;;;;24.95;20.90;;;;;;;9.84;100.00;99354.53;2047638;29;20199;-82
2021/09/28 00:21:23;;;;;;;22.47;20.27;;;;;;;9.85;100.00;99364.09;2047499;29;20589;-81
2021/09/28 00:22:28;;;;;;;22.50;20.35;;;;;;;9.73;100.00;99342.38;2047374;29;20204;-81
2021/09/28 00:23:32;;;;;;;25.60;20.55;;;;;;;9.74;100.00;99349.31;2047151;29;20202;-81
2021/09/28 00:24:34;;;;;;;23.10;20.70;;;;;;;9.84;100.00;99367.84;2049299;29;20218;-81
2021/09/28 00:25:36;;;;;;;22.40;20.27;;;;;;;9.71;100.00;99349.88;2054452;29;20266;-80
2021/09/28 00:26:38;;;;;;;22.80;20.50;;;;;;;9.77;100.00;99359.41;2053863;29;20234;-80
2021/09/28 00:27:48;;;;;;;22.95;20.77;;;;;;;9.68;100.00;99353.09;2039847;29;20203;-81
2021/09/28 00:28:50;;;;;;;22.65;20.55;;;;;;;9.70;100.00;99356.28;2047866;29;20176;-81
2021/09/28 00:29:53;;;;;;;22.77;20.38;;;;;;;9.79;100.00;99370.56;2056352;29;20190;-80
2021/09/28 00:30:56;;;;;;;25.05;21.02;;;;;;;9.65;100.00;99357.13;2046254;29;20199;-81
2021/09/28 00:31:58;;;;;;;23.08;20.83;;;;;;;9.66;100.00;99355.25;2045797;29;20239;-81
2021/09/28 00:33:00;;;;;;;23.70;21.30;;;;;;;9.61;100.00;99348.91;2055319;29;20202;-81
2021/09/28 00:34:03;;;;;;;23.10;20.80;;;;;;;9.69;100.00;99366.13;2054421;29;20611;-81
2021/09/28 00:35:09;;;;;;;23.05;20.92;;;;;;;9.54;100.00;99353.75;2048786;29;20207;-81
2021/09/28 00:36:12;;;;;;;22.42;20.10;;;;;;;9.61;100.00;99354.22;2055223;29;20210;-81
2021/09/28 00:37:16;;;;;;;25.48;20.98;;;;;;;9.56;100.00;99356.16;2053408;29;20190;-81
2021/09/28 00:38:20;;;;;;;22.60;20.30;;;;;;;9.51;100.00;99349.00;2055207;29;20219;-81
2021/09/28 00:39:23;;;;;;;21.85;19.95;;;;;;;9.52;100.00;99355.91;2047952;29;20677;-81
2021/09/28 00:40:31;;;;;;;22.08;20.02;;;;;;;9.47;100.00;99342.66;2038086;29;20280;-80
2021/09/28 00:41:32;;;;;;;23.50;20.50;;;;;;;9.52;100.00;99353.25;2041607;29;20196;-81
2021/09/28 00:42:40;;;;;;;22.90;20.60;;;;;;;9.45;100.00;99344.78;2056002;28;20197;-81
2021/09/28 00:43:48;;;;;;;22.20;20.08;;;;;;;9.46;100.00;99353.56;2055588;29;20179;-80
2021/09/28 00:44:50;;;;;;;22.75;20.50;;;;;;;9.46;100.00;99356.22;2054582;29;20201;-80
2021/09/28 00:45:53;;;;;;;22.67;20.52;;;;;;;9.45;100.00;99352.78;2055386;29;20203;-80
2021/09/28 00:46:54;;;;;;;22.05;20.05;;;;;;;9.48;100.00;99360.22;2056362;29;20222;-79
2021/09/28 00:48:01;;;;;;;21.55;19.55;;;;;;;9.43;100.00;99357.59;2056161;29;20194;-79
2021/09/28 00:49:05;;;;;;;22.88;20.85;;;;;;;9.49;100.00;99374.34;2048092;29;20266;-81
2021/09/28 00:50:11;;;;;;;22.88;20.67;;;;;;;9.48;100.00;99367.44;2039888;29;20199;-81
2021/09/28 00:51:24;;;;;;;27.30;21.05;;;;;;;9.31;100.00;99349.19;2047170;29;20189;-81
2021/09/28 00:52:28;;;;;;;23.05;19.73;;;;;;;9.45;100.00;99370.63;2056393;29;20202;-81
2021/09/28 00:53:32;;;;;;;22.02;19.83;;;;;;;9.40;100.00;99368.03;2046942;29;20206;-81
2021/09/28 00:54:37;;;;;;;22.45;20.08;;;;;;;9.26;100.00;99351.91;2046194;29;20183;-81
2021/09/28 00:55:38;;;;;;;20.80;19.00;;;;;;;9.22;100.00;99345.56;2048820;29;20200;-81
2021/09/28 00:56:46;;;;;;;22.13;19.92;;;;;;;9.33;100.00;99363.03;2053721;29;20235;-81
2021/09/28 00:57:52;;;;;;;21.27;19.33;;;;;;;9.28;100.00;99361.19;2055716;28;20186;-82
2021/09/28 00:58:55;;;;;;;21.13;19.20;;;;;;;9.22;100.00;99354.34;2054717;29;20257;-81
2021/09/28 00:59:57;;;;;;;21.67;19.63;;;;;;;9.19;100.00;99352.22;2056597;29;20202;-81
2021/09/28 01:01:02;;;;;;;20.88;19.17;;;;;;;9.19;100.00;99351.41;2041672;29;20257;-81
2021/09/28 01:02:04;;;;;;;21.38;19.48;;;;;;;9.20;100.00;99359.13;2047810;28;20651;-81
2021/09/28 01:03:19;;;;;;;21.50;19.60;;;;;;;9.25;100.00;99372.41;2056160;29;20234;-81
2021/09/28 01:04:23;;;;;;;21.13;19.08;;;;;;;9.23;100.00;99365.78;2048522;29;20286;-81
2021/09/28 01:05:25;;;;;;;19.85;18.23;;;;;;;9.38;100.00;99360.28;2049169;29;20203;-80
2021/09/28 01:06:31;;;;;;;20.85;18.65;;;;;;;9.54;100.00;99375.06;2057202;29;20206;-81
2021/09/28 01:07:34;;;;;;;20.33;18.55;;;;;;;9.47;100.00;99349.81;2056583;29;20206;-80
2021/09/28 01:08:45;;;;;;;21.08;19.08;;;;;;;9.61;100.00;99359.56;2041043;29;20192;-80
2021/09/28 01:09:49;;;;;;;20.88;18.90;;;;;;;9.71;100.00;99368.50;2041868;29;20203;-80
2021/09/28 01:10:55;;;;;;;20.77;18.80;;;;;;;9.66;100.00;99366.72;2042049;29;20203;-80
2021/09/28 01:12:09;;;;;;;20.85;18.95;;;;;;;9.66;100.00;99360.59;2039608;29;20251;-80
2021/09/28 01:13:13;;;;;;;19.90;18.02;;;;;;;9.57;100.00;99353.22;2045521;29;20195;-80
2021/09/28 01:14:29;;;;;;;20.88;18.73;;;;;;;9.59;100.00;99364.38;2049671;29;20190;-80
2021/09/28 01:15:48;;;;;;;21.08;18.73;;;;;;;9.55;100.00;99349.22;2057677;29;20186;-81
2021/09/28 01:16:50;;;;;;;21.55;19.65;;;;;;;9.66;100.00;99360.59;2054502;29;20612;-81
2021/09/28 01:18:00;;;;;;;21.02;19.33;;;;;;;9.69;100.00;99354.69;2050697;29;20198;-81
2021/09/28 01:19:02;;;;;;;19.55;17.85;;;;;;;9.77;100.00;99370.06;2046837;29;20211;-81
2021/09/28 01:20:14;;;;;;;20.38;18.63;;;;;;;9.72;100.00;99370.09;2046651;29;20203;-81
2021/09/28 01:21:20;;;;;;;20.30;18.60;;;;;;;9.61;100.00;99356.09;2050669;29;20206;-81
2021/09/28 01:22:23;;;;;;;19.88;17.85;;;;;;;9.53;100.00;99352.16;2040367;29;20188;-81
2021/09/28 01:23:25;;;;;;;19.95;18.02;;;;;;;9.61;100.00;99369.41;2049655;29;20744;-81
2021/09/28 01:24:28;;;;;;;19.35;17.85;;;;;;;9.59;100.00;99372.38;2049103;29;20198;-81
2021/09/28 01:25:32;;;;;;;19.58;18.08;;;;;;;9.44;100.00;99356.53;2047791;29;20286;-80
2021/09/28 01:26:35;;;;;;;20.02;18.23;;;;;;;9.49;100.00;99353.81;2058121;29;20206;-80
2021/09/28 01:27:41;;;;;;;19.77;18.15;;;;;;;9.54;100.00;99363.63;2054595;29;20199;-80
2021/09/28 01:28:43;;;;;;;20.30;18.30;;;;;;;9.63;100.00;99370.72;2050745;29;20203;-81
2021/09/28 01:29:49;;;;;;;20.30;18.65;;;;;;;9.59;100.00;99361.72;2048708;29;20656;-80
2021/09/28 01:30:55;;;;;;;20.73;18.88;;;;;;;9.66;100.00;99365.91;2056243;29;20202;-80
2021/09/28 01:32:00;;;;;;;20.50;18.60;;;;;;;9.64;100.00;99376.84;2050236;29;20266;-80
2021/09/28 01:33:02;;;;;;;19.75;18.15;;;;;;;9.56;100.00;99370.28;2048698;29;20210;-80
2021/09/28 01:34:07;;;;;;;19.70;17.95;;;;;;;9.51;100.00;99370.31;2050476;29;20219;-80
2021/09/28 01:35:14;;;;;;;20.50;18.40;;;;;;;9.62;100.00;99371.78;2047529;29;20247;-80
2021/09/28 01:36:16;;;;;;;22.65;17.95;;;;;;;9.60;100.00;99383.81;2049736;29;20258;-80
2021/09/28 01:37:21;;;;;;;20.38;18.48;;;;;;;9.55;100.00;99381.19;2057620;28;20206;-80
2021/09/28 01:38:24;;;;;;;20.20;18.13;;;;;;;9.36;100.00;99359.78;2057589;29;20187;-80
2021/09/28 01:39:33;;;;;;;19.73;18.23;;;;;;;9.38;100.00;99368.28;2043852;29;20192;-80
2021/09/28 01:40:38;;;;;;;19.95;18.20;;;;;;;9.30;100.00;99364.38;2048136;29;20215;-80
2021/09/28 01:41:52;;;;;;;20.20;18.60;;;;;;;9.37;100.00;99379.22;2058317;29;20214;-81
2021/09/28 01:42:56;;;;;;;20.40;18.50;;;;;;;9.31;100.00;99365.19;2042401;29;20203;-80
2021/09/28 01:44:10;;;;;;;19.88;18.17;;;;;;;9.41;100.00;99381.06;2049085;29;20190;-81
2021/09/28 01:45:20;;;;;;;19.45;18.05;;;;;;;9.30;100.00;99376.91;2056403;29;20190;-81
2021/09/28 01:46:22;;;;;;;20.05;18.15;;;;;;;9.26;100.00;99376.66;2055688;29;20187;-80
2021/09/28 01:47:27;;;;;;;19.58;17.73;;;;;;;9.23;100.00;99379.09;2057670;28;20195;-80
2021/09/28 01:48:34;;;;;;;20.30;18.20;;;;;;;9.12;100.00;99369.56;2040663;29;20211;-80
2021/09/28 01:49:47;;;;;;;20.30;18.50;;;;;;;9.19;100.00;99383.38;2052703;29;20160;-81
2021/09/28 01:50:51;;;;;;;19.88;17.63;;;;;;;9.09;100.00;99380.78;2054004;29;20206;-81
2021/09/28 01:51:57;;;;;;;19.90;18.05;;;;;;;9.13;100.00;99373.84;2049396;29;20226;-80
2021/09/28 01:53:02;;;;;;;20.02;18.25;;;;;;;9.22;100.00;99391.59;2056901;29;20361;-80
2021/09/28 01:54:11;;;;;;;20.60;18.75;;;;;;;9.20;100.00;99396.41;2056921;29;20182;-80
2021/09/28 01:55:14;;;;;;;20.25;18.20;;;;;;;9.18;100.00;99392.44;2058539;29;20217;-80
2021/09/28 01:56:24;;;;;;;20.13;18.42;;;;;;;9.11;100.00;99381.31;2046222;29;20709;-80
2021/09/28 01:57:31;;;;;;;19.55;17.92;;;;;;;9.10;100.00;99385.03;2052836;29;20187;-80
2021/09/28 01:58:35;;;;;;;21.05;18.95;;;;;;;9.13;100.00;99395.16;2046520;29;20223;-80
2021/09/28 01:59:40;;;;;;;19.33;17.90;;;;;;;9.02;100.00;99381.88;2041034;29;20537;-80
2021/09/28 02:00:43;;;;;;;20.38;18.15;;;;;;;9.07;100.00;99395.16;2041786;29;20512;-80
2021/09/28 02:01:53;;;;;;;19.70;17.80;;;;;;;9.03;100.00;99391.50;2046022;29;20246;-80
2021/09/28 02:02:55;;;;;;;19.60;17.90;;;;;;;9.06;100.00;99401.56;2056983;29;20261;-80
2021/09/28 02:03:58;;;;;;;20.17;18.15;;;;;;;9.05;100.00;99392.00;2052956;29;20198;-80
2021/09/28 02:05:05;;;;;;;21.00;19.10;;;;;;;9.13;100.00;99390.63;2056732;29;20209;-80
2021/09/28 02:06:11;;;;;;;19.92;18.30;;;;;;;9.02;100.00;99381.09;2056252;29;20556;-80
2021/09/28 02:07:16;;;;;;;20.48;18.48;;;;;;;9.11;100.00;99397.28;2055528;29;20210;-80
2021/09/28 02:08:20;;;;;;;19.52;17.83;;;;;;;9.06;100.00;99395.44;2046982;29;20194;-80
2021/09/28 02:09:26;;;;;;;21.10;19.17;;;;;;;9.09;100.00;99405.53;2053208;28;20186;-80
2021/09/28 02:10:31;;;;;;;20.30;18.60;;;;;;;9.05;100.00;99399.97;2049428;29;20238;-81
2021/09/28 02:12:59;;;;;;;20.88;19.00;;;;;;;8.94;100.00;99398.44;2051664;29;20206;-80
2021/09/28 02:14:04;;;;;;;20.60;18.90;;;;;;;8.94;100.00;99397.66;2054846;29;20202;-80
2021/09/28 02:15:07;;;;;;;20.30;18.40;;;;;;;8.92;100.00;99399.81;2047920;29;20223;-80
2021/09/28 02:16:09;;;;;;;19.55;17.48;;;;;;;8.83;100.00;99396.13;2047944;29;20214;-81
2021/09/28 02:17:12;;;;;;;18.98;17.45;;;;;;;8.83;100.00;99393.47;2053531;29;20205;-80
2021/09/28 02:18:13;;;;;;;19.48;17.80;;;;;;;9.05;100.00;99399.97;2049273;29;20203;-81
2021/09/28 02:19:34;;;;;;;20.40;18.45;;;;;;;8.91;100.00;99383.03;2054335;29;20198;-80
2021/09/28 02:20:35;;;;;;;20.60;18.60;;;;;;;8.98;100.00;99399.50;2056213;29;20174;-80
2021/09/28 02:21:38;;;;;;;20.00;18.17;;;;;;;8.98;100.00;99401.38;2048590;29;20218;-80
2021/09/28 02:22:39;;;;;;;20.38;18.48;;;;;;;8.91;100.00;99382.25;2046620;29;20291;-81
2021/09/28 02:23:43;;;;;;;19.77;18.27;;;;;;;8.91;100.00;99391.03;2050497;29;20258;-80
2021/09/28 02:24:44;;;;;;;20.05;18.48;;;;;;;8.92;100.00;99400.59;2053010;29;20202;-80
2021/09/28 02:25:51;;;;;;;20.23;18.63;;;;;;;9.04;100.00;99414.38;2055879;29;20182;-80
2021/09/28 02:26:57;;;;;;;20.52;18.67;;;;;;;9.05;100.00;99404.50;2056198;29;20202;-80
2021/09/28 02:28:02;;;;;;;20.23;18.20;;;;;;;8.93;100.00;99396.84;2055821;29;20201;-80
2021/09/28 02:29:04;;;;;;;20.10;17.98;;;;;;;8.94;100.00;99389.66;2049753;29;20187;-80
2021/09/28 02:30:08;;;;;;;19.40;17.75;;;;;;;8.93;100.00;99385.41;2043375;29;20728;-80
2021/09/28 02:31:10;;;;;;;19.75;17.85;;;;;;;9.01;100.00;99387.50;2049731;29;20258;-81
2021/09/28 02:32:12;;;;;;;18.58;17.17;;;;;;;9.04;100.00;99395.75;2047307;29;20626;-80
2021/09/28 02:33:20;;;;;;;19.48;17.77;;;;;;;8.98;100.00;99393.38;2046773;29;20203;-80
2021/09/28 02:34:23;;;;;;;19.58;17.75;;;;;;;9.06;100.00;99406.91;2057766;29;20185;-80
2021/09/28 02:35:30;;;;;;;19.50;17.90;;;;;;;9.06;100.00;99414.88;2044518;29;20191;-80
2021/09/28 02:36:31;;;;;;;19.00;17.48;;;;;;;8.98;100.00;99401.38;2056935;29;20202;-80
2021/09/28 02:37:34;;;;;;;19.80;18.15;;;;;;;8.96;100.00;99406.97;2046535;29;20202;-80
2021/09/28 02:38:38;;;;;;;20.48;18.42;;;;;;;8.87;100.00;99392.66;2048115;29;20229;-80
2021/09/28 02:39:43;;;;;;;20.17;18.35;;;;;;;8.83;100.00;99390.81;2050711;29;20199;-80
2021/09/28 02:40:44;;;;;;;19.75;18.25;;;;;;;8.86;100.00;99403.56;2044997;29;20206;-80
2021/09/28 02:41:51;;;;;;;18.85;17.30;;;;;;;8.86;100.00;99393.75;2048571;29;20207;-80
2021/09/28 02:42:53;;;;;;;18.95;17.50;;;;;;;8.95;100.00;99404.59;2054289;29;20182;-80
2021/09/28 02:43:56;;;;;;;19.08;17.48;;;;;;;8.97;100.00;99408.56;2056922;29;20186;-80
2021/09/28 02:45:00;;;;;;;19.27;17.70;;;;;;;8.95;100.00;99399.28;2058243;29;20186;-80
2021/09/28 02:46:05;;;;;;;19.15;17.40;;;;;;;8.96;100.00;99398.97;2053353;29;20194;-80
2021/09/28 02:47:06;;;;;;;19.35;17.75;;;;;;;8.93;100.00;99396.84;2057919;29;20201;-80
2021/09/28 02:48:10;;;;;;;19.27;17.77;;;;;;;8.98;100.00;99410.13;2052402;29;20233;-80
2021/09/28 02:49:12;;;;;;;19.63;18.05;;;;;;;8.89;100.00;99395.84;2055493;29;20207;-80
2021/09/28 02:50:14;;;;;;;19.65;17.77;;;;;;;8.93;100.00;99404.03;2049000;29;20227;-80
2021/09/28 02:51:26;;;;;;;19.83;18.08;;;;;;;8.89;100.00;99411.78;2054053;29;20207;-80
2021/09/28 02:52:29;;;;;;;20.33;18.33;;;;;;;8.86;100.00;99407.03;2057121;28;20214;-80
2021/09/28 02:53:33;;;;;;;20.17;18.30;;;;;;;8.88;100.00;99406.75;2053028;29;20288;-80
2021/09/28 02:54:37;;;;;;;20.60;18.65;;;;;;;8.89;100.00;99406.47;2048636;29;20230;-79
2021/09/28 02:55:43;;;;;;;20.10;18.17;;;;;;;8.89;100.00;99395.03;2053489;29;20186;-80
2021/09/28 02:56:47;;;;;;;19.10;17.15;;;;;;;8.87;100.00;99394.53;2055446;29;20207;-80
2021/09/28 02:57:58;;;;;;;19.73;17.88;;;;;;;8.83;100.00;99391.59;2039283;29;20207;-81
2021/09/28 02:59:00;;;;;;;19.42;17.85;;;;;;;8.77;100.00;99392.69;2041069;29;20207;-80
2021/09/28 03:00:04;;;;;;;19.17;17.67;;;;;;;8.82;100.00;99400.66;2049321;29;20203;-80
2021/09/28 03:01:06;;;;;;;20.08;18.45;;;;;;;8.85;100.00;99394.78;2044009;29;20203;-81
2021/09/28 03:02:09;;;;;;;19.60;18.10;;;;;;;8.75;100.00;99379.69;2051012;29;20275;-81
2021/09/28 03:03:12;;;;;;;19.58;17.98;;;;;;;8.69;100.00;99386.13;2046302;29;20242;-81
2021/09/28 03:04:15;;;;;;;19.08;17.67;;;;;;;8.65;100.00;99385.06;2052600;29;20249;-80
2021/09/28 03:05:18;;;;;;;19.75;18.02;;;;;;;8.63;100.00;99379.22;2057678;29;20198;-80
2021/09/28 03:06:23;;;;;;;20.00;18.23;;;;;;;8.65;100.00;99393.03;2053130;29;20189;-80
2021/09/28 03:07:28;;;;;;;20.48;18.77;;;;;;;8.64;100.00;99388.78;2057102;29;20221;-80
2021/09/28 03:08:35;;;;;;;19.63;17.88;;;;;;;8.74;100.00;99409.22;2057006;29;20206;-81
2021/09/28 03:09:40;;;;;;;20.27;18.67;;;;;;;8.60;100.00;99390.44;2054908;29;20226;-81
2021/09/28 03:12:23;;;;;;;20.08;18.48;;;;;;;8.72;100.00;99396.19;2052237;29;20226;-80
2021/09/28 03:13:46;;;;;;;19.90;18.27;;;;;;;8.80;100.00;99408.13;2059038;29;20194;-80
2021/09/28 03:14:47;;;;;;;20.52;18.63;;;;;;;8.67;100.00;99390.09;2054985;29;20656;-81
2021/09/28 03:15:54;;;;;;;20.52;18.67;;;;;;;8.68;100.00;99387.16;2057542;28;20174;-80
2021/09/28 03:16:58;;;;;;;20.75;19.05;;;;;;;8.77;100.00;99401.50;2055163;29;20205;-80
2021/09/28 03:18:01;;;;;;;20.63;18.63;;;;;;;8.62;100.00;99384.84;2056869;29;20186;-80
2021/09/28 03:19:02;;;;;;;20.20;18.40;;;;;;;8.68;100.00;99405.00;2048706;29;20198;-80
2021/09/28 03:20:15;;;;;;;19.83;18.13;;;;;;;8.69;100.00;99395.97;2045888;29;20195;-80
2021/09/28 03:21:16;;;;;;;20.38;18.67;;;;;;;8.76;100.00;99396.44;2048519;29;20834;-80
2021/09/28 03:22:22;;;;;;;20.00;18.20;;;;;;;8.70;100.00;99394.91;2045146;29;20195;-80
2021/09/28 03:23:23;;;;;;;20.55;18.55;;;;;;;8.64;100.00;99393.31;2057992;29;20191;-80
2021/09/28 03:24:30;;;;;;;20.17;18.40;;;;;;;8.70;100.00;99402.88;2052338;29;20202;-80
2021/09/28 03:25:31;;;;;;;19.80;18.20;;;;;;;8.52;100.00;99385.69;2055676;29;20221;-80
2021/09/28 03:26:37;;;;;;;20.25;18.40;;;;;;;8.64;100.00;99412.75;2054720;29;20201;-80
2021/09/28 03:27:38;;;;;;;19.85;18.10;;;;;;;8.49;100.00;99392.31;2047796;29;20199;-79
2021/09/28 03:28:40;;;;;;;20.20;18.23;;;;;;;8.58;100.00;99411.16;2056822;29;20605;-78
2021/09/28 03:29:42;;;;;;;20.83;19.13;;;;;;;8.55;100.00;99417.03;2045461;29;20222;-78
2021/09/28 03:30:48;;;;;;;19.45;17.92;;;;;;;8.53;100.00;99410.41;2057056;29;20194;-79
2021/09/28 03:31:52;;;;;;;20.27;18.30;;;;;;;8.54;100.00;99409.34;2054170;29;20214;-80
2021/09/28 03:32:56;;;;;;;19.65;18.10;;;;;;;8.42;100.00;99402.47;2053888;29;20222;-80
2021/09/28 03:33:57;;;;;;;19.60;17.83;;;;;;;8.42;100.00;99405.13;2056584;29;20203;-80
2021/09/28 03:35:09;;;;;;;19.55;17.95;;;;;;;8.34;100.00;99395.03;2052350;28;20187;-80
2021/09/28 03:36:12;;;;;;;19.77;18.17;;;;;;;8.47;100.00;99418.41;2056154;29;20202;-80
2021/09/28 03:37:15;;;;;;;19.42;17.77;;;;;;;8.31;100.00;99398.22;2048944;29;20647;-80
2021/09/28 03:38:25;;;;;;;19.83;18.02;;;;;;;8.36;100.00;99411.53;2047827;29;20191;-80
2021/09/28 03:39:27;;;;;;;19.17;17.67;;;;;;;8.31;100.00;99400.09;2048988;29;20323;-80
2021/09/28 03:40:36;;;;;;;20.25;18.08;;;;;;;8.27;100.00;99407.84;2047899;29;20271;-80
2021/09/28 03:41:39;;;;;;;19.85;18.13;;;;;;;8.19;100.00;99397.75;2057662;29;20169;-80
2021/09/28 03:42:44;;;;;;;20.73;18.65;;;;;;;8.31;100.00;99418.69;2054099;29;20186;-80
2021/09/28 03:43:50;;;;;;;20.25;18.35;;;;;;;8.23;100.00;99407.56;2049796;29;20206;-80
2021/09/28 03:44:53;;;;;;;19.52;18.02;;;;;;;8.34;100.00;99418.97;2048641;29;20598;-80
2021/09/28 03:45:55;;;;;;;20.70;17.52;;;;;;;8.31;100.00;99416.84;2055174;29;20680;-80
2021/09/28 03:46:58;;;;;;;19.08;17.65;;;;;;;8.35;100.00;99417.94;2049216;29;20182;-80
2021/09/28 03:48:03;;;;;;;19.33;17.70;;;;;;;8.39;100.00;99415.50;2039964;29;20191;-80
2021/09/28 03:49:04;;;;;;;19.40;17.80;;;;;;;8.32;100.00;99410.44;2056049;29;20194;-80
2021/09/28 03:50:09;;;;;;;20.15;18.40;;;;;;;8.39;100.00;99408.34;2054868;29;20198;-80
2021/09/28 03:51:12;;;;;;;19.58;17.85;;;;;;;8.55;100.00;99426.88;2054974;29;20217;-80
2021/09/28 03:52:17;;;;;;;19.95;18.15;;;;;;;8.48;100.00;99422.66;2054143;29;20293;-80
2021/09/28 03:53:18;;;;;;;19.92;18.17;;;;;;;8.43;100.00;99417.38;2055220;29;20225;-81
2021/09/28 03:54:22;;;;;;;19.93;18.23;;;;;;;8.51;100.00;99429.28;2054660;29;20197;-80
2021/09/28 03:55:23;;;;;;;19.80;18.13;;;;;;;8.52;100.00;99428.22;2046247;29;20282;-80
2021/09/28 03:56:29;;;;;;;20.92;18.88;;;;;;;8.42;100.00;99418.41;2054514;29;20194;-81
2021/09/28 03:57:36;;;;;;;20.23;18.50;;;;;;;8.38;100.00;99412.06;2046565;29;20207;-81
2021/09/28 03:58:41;;;;;;;21.80;18.88;;;;;;;8.34;100.00;99412.84;2054879;28;20696;-80
2021/09/28 03:59:46;;;;;;;20.15;18.42;;;;;;;8.40;100.00;99427.72;2055267;29;20189;-81
2021/09/28 04:00:47;;;;;;;19.92;18.08;;;;;;;8.24;100.00;99411.00;2055067;29;20213;-81
2021/09/28 04:01:58;;;;;;;20.42;18.63;;;;;;;8.41;100.00;99434.63;2044810;29;20222;-82
2021/09/28 04:03:03;;;;;;;19.48;17.98;;;;;;;8.49;100.00;99431.41;2045835;29;20246;-81
2021/09/28 04:04:07;;;;;;;20.33;18.35;;;;;;;8.50;100.00;99441.78;2047790;29;20254;-81
2021/09/28 04:05:12;;;;;;;20.35;18.42;;;;;;;8.53;100.00;99439.66;2054536;29;20190;-80
2021/09/28 04:06:15;;;;;;;20.25;18.42;;;;;;;8.31;100.00;99408.88;2056162;29;20198;-81
2021/09/28 04:07:18;;;;;;;20.15;18.23;;;;;;;8.33;100.00;99411.25;2054804;29;20194;-81
2021/09/28 04:08:23;;;;;;;20.83;18.95;;;;;;;8.35;100.00;99425.91;2052643;28;20292;-81
2021/09/28 04:09:27;;;;;;;20.10;18.30;;;;;;;8.50;100.00;99433.00;2053545;29;20202;-81
2021/09/28 04:10:38;;;;;;;21.00;18.98;;;;;;;8.42;100.00;99433.56;2046750;29;20202;-81
2021/09/28 04:11:41;;;;;;;18.83;17.42;;;;;;;8.28;100.00;99417.41;2045706;29;20219;-80
2021/09/28 04:12:46;;;;;;;19.77;17.88;;;;;;;8.41;100.00;99442.63;2054623;29;20187;-80
2021/09/28 04:13:48;;;;;;;20.45;18.58;;;;;;;8.32;100.00;99431.72;2052029;29;20684;-81
2021/09/28 04:14:53;;;;;;;20.75;18.85;;;;;;;8.32;100.00;99445.00;2053648;29;20198;-80
2021/09/28 04:15:56;;;;;;;20.27;18.52;;;;;;;8.16;100.00;99422.19;2055507;29;20206;-80
2021/09/28 04:17:01;;;;;;;20.50;18.80;;;;;;;8.24;100.00;99432.28;2052879;29;20277;-81
2021/09/28 04:18:04;;;;;;;20.63;18.65;;;;;;;8.21;100.00;99438.16;2055081;29;20190;-81
2021/09/28 04:19:08;;;;;;;20.13;18.40;;;;;;;8.12;100.00;99419.31;2051461;29;20204;-80
2021/09/28 04:20:13;;;;;;;20.60;18.58;;;;;;;8.28;100.00;99445.84;2053687;29;20209;-81
2021/09/28 04:21:20;;;;;;;23.02;19.23;;;;;;;8.17;100.00;99437.09;2052479;29;20548;-80
2021/09/28 04:22:23;;;;;;;20.65;18.52;;;;;;;8.19;100.00;99448.25;2054153;29;20174;-80
2021/09/28 04:23:25;;;;;;;21.30;19.35;;;;;;;8.14;100.00;99446.41;2052883;29;20649;-81
2021/09/28 04:24:28;;;;;;;21.08;18.95;;;;;;;8.10;100.00;99444.56;2053825;29;20202;-80
2021/09/28 04:25:40;;;;;;;20.88;18.98;;;;;;;7.96;100.00;99427.59;2054101;29;20195;-80
2021/09/28 04:26:45;;;;;;;20.70;18.67;;;;;;;8.09;100.00;99435.00;2052558;29;20560;-81
2021/09/28 04:27:51;;;;;;;21.33;19.10;;;;;;;8.13;100.00;99436.03;2054054;29;20278;-81
2021/09/28 04:28:58;;;;;;;20.83;18.83;;;;;;;8.17;100.00;99445.09;2046238;29;20219;-81
2021/09/28 04:30:00;;;;;;;20.83;19.17;;;;;;;8.25;100.00;99457.78;2055243;29;20194;-80
2021/09/28 04:31:04;;;;;;;21.38;19.33;;;;;;;8.17;100.00;99443.22;2054666;29;20269;-80
2021/09/28 04:32:08;;;;;;;21.52;19.50;;;;;;;8.09;100.00;99445.63;2052158;28;20208;-81
2021/09/28 04:33:10;;;;;;;21.48;19.35;;;;;;;8.06;100.00;99441.63;2054768;29;20277;-80
2021/09/28 04:34:16;;;;;;;21.25;19.35;;;;;;;8.01;100.00;99441.66;2046786;29;20195;-80
2021/09/28 04:35:18;;;;;;;21.40;19.52;;;;;;;8.01;100.00;99441.66;2056115;29;20238;-81
2021/09/28 04:36:22;;;;;;;21.48;19.48;;;;;;;8.06;100.00;99456.78;2056072;29;20190;-81
2021/09/28 04:37:31;;;;;;;22.05;19.73;;;;;;;7.96;100.00;99441.66;2046192;29;20187;-80
2021/09/28 04:38:36;;;;;;;22.83;20.67;;;;;;;8.10;100.00;99463.97;2056658;29;20198;-82
2021/09/28 04:39:43;;;;;;;23.98;21.55;;;;;;;7.93;100.00;99434.25;2052349;29;20297;-81
2021/09/28 04:40:45;;;;;;;20.85;18.80;;;;;;;8.08;100.00;99457.31;2053199;29;20175;-81
2021/09/28 04:41:54;;;;;;;21.65;19.63;;;;;;;7.99;100.00;99442.97;2053671;29;20253;-80
2021/09/28 04:42:57;;;;;;;25.20;20.35;;;;;;;8.05;100.00;99455.19;2052861;29;20222;-80
2021/09/28 04:44:08;;;;;;;22.45;20.17;;;;;;;8.06;100.00;99449.59;2053700;29;20214;-81
2021/09/28 04:45:11;;;;;;;27.60;20.33;;;;;;;8.12;100.00;99467.13;2052884;29;20194;-80
2021/09/28 04:46:16;;;;;;;22.25;20.10;;;;;;;8.03;100.00;99449.34;2046067;29;20205;-80
2021/09/28 04:47:21;;;;;;;22.13;20.27;;;;;;;8.12;100.00;99461.81;2053651;29;20217;-80
2021/09/28 04:48:26;;;;;;;21.92;19.70;;;;;;;8.00;100.00;99442.72;2046381;29;20195;-81
2021/09/28 04:49:28;;;;;;;24.80;19.52;;;;;;;8.13;100.00;99457.31;2046332;29;20294;-80
2021/09/28 04:50:35;;;;;;;21.80;19.90;;;;;;;8.01;100.00;99438.22;2045855;29;20246;-80
2021/09/28 04:51:36;;;;;;;21.92;19.77;;;;;;;8.11;100.00;99457.56;2047275;29;20195;-80
2021/09/28 04:52:44;;;;;;;22.85;20.33;;;;;;;8.03;100.00;99442.19;2053095;29;20198;-81
2021/09/28 04:53:47;;;;;;;23.05;20.70;;;;;;;8.06;100.00;99444.28;2056308;29;20222;-81
2021/09/28 04:54:51;;;;;;;22.25;20.35;;;;;;;8.04;100.00;99440.31;2045802;29;20297;-81
2021/09/28 04:55:55;;;;;;;22.23;19.98;;;;;;;8.11;100.00;99448.81;2047474;29;20199;-81
2021/09/28 04:56:57;;;;;;;22.83;20.58;;;;;;;8.26;100.00;99470.03;2040063;29;20210;-81
2021/09/28 04:58:00;;;;;;;22.55;20.52;;;;;;;8.20;100.00;99463.13;2044442;29;20225;-81
2021/09/28 04:59:03;;;;;;;23.52;21.08;;;;;;;8.20;100.00;99457.81;2039692;29;20199;-81
2021/09/28 05:00:10;;;;;;;23.13;20.63;;;;;;;8.19;100.00;99453.56;2039219;29;20200;-81
2021/09/28 05:01:17;;;;;;;22.77;20.48;;;;;;;8.28;100.00;99464.44;2056490;29;20537;-81
2021/09/28 05:02:18;;;;;;;21.98;19.80;;;;;;;8.34;100.00;99471.31;2054397;29;20261;-81